createdAt,value
2022-08-22T00:00:52.498Z,92.41
2022-08-22T00:01:52.533Z,92.41
2022-08-22T00:02:48.496Z,84.33
2022-08-22T00:03:03.717Z,79.30
2022-08-22T00:03:07.725Z,80.22
2022-08-22T00:03:08.826Z,92.91
2022-08-22T00:03:15.293Z,93.46
2022-08-22T00:03:15.495Z,93.07
2022-08-22T00:03:17.315Z,92.51
2022-08-22T00:03:53.464Z,92.51
2022-08-22T00:04:52.424Z,92.61
2022-08-22T00:05:52.415Z,92.61
2022-08-22T00:06:52.405Z,92.61
2022-08-22T00:07:52.417Z,92.51
2022-08-22T00:08:52.372Z,92.61
2022-08-22T00:09:52.380Z,92.65
2022-08-22T00:10:52.334Z,92.76
2022-08-22T00:11:52.322Z,92.96
2022-08-22T00:12:52.316Z,93.16
2022-08-22T00:13:54.849Z,93.61
2022-08-22T00:14:53.302Z,93.91
2022-08-22T00:15:52.306Z,94.12
2022-08-22T00:16:53.483Z,94.18
2022-08-22T00:17:52.339Z,94.07
2022-08-22T00:18:52.245Z,94.12
2022-08-22T00:19:52.244Z,94.22
2022-08-22T00:20:52.236Z,94.22
2022-08-22T00:21:52.197Z,94.07
2022-08-22T00:22:52.196Z,93.87
2022-08-22T00:23:52.165Z,93.77
2022-08-22T00:24:52.151Z,93.57
2022-08-22T00:25:52.136Z,93.57
2022-08-22T00:26:52.149Z,93.26
2022-08-22T00:27:52.112Z,93.26
2022-08-22T00:28:52.104Z,93.26
2022-08-22T00:29:52.415Z,93.26
2022-08-22T00:30:52.075Z,93.16
2022-08-22T00:31:52.065Z,93.26
2022-08-22T00:32:52.087Z,93.26
2022-08-22T00:33:52.049Z,93.16
2022-08-22T00:34:52.037Z,93.16
2022-08-22T00:35:52.008Z,93.16
2022-08-22T00:36:52.021Z,93.26
2022-08-22T00:37:52.032Z,93.26
2022-08-22T00:38:51.977Z,93.26
2022-08-22T00:39:52.022Z,92.96
2022-08-22T00:40:51.954Z,92.76
2022-08-22T00:41:51.956Z,92.96
2022-08-22T00:42:51.926Z,93.61
2022-08-22T00:43:51.981Z,94.22
2022-08-22T00:44:51.896Z,94.18
2022-08-22T00:45:51.877Z,94.27
2022-08-22T00:46:51.866Z,94.18
2022-08-22T00:47:51.983Z,93.97
2022-08-22T00:48:51.845Z,93.87
2022-08-22T00:49:51.838Z,93.91
2022-08-22T00:50:51.819Z,94.12
2022-08-22T00:51:51.798Z,94.38
2022-08-22T00:52:51.789Z,94.07
2022-08-22T00:53:51.787Z,93.81
2022-08-22T00:54:51.769Z,94.42
2022-08-22T00:55:51.746Z,94.53
2022-08-22T00:56:51.737Z,94.62
2022-08-22T00:57:51.734Z,94.68
2022-08-22T00:58:51.760Z,94.68
2022-08-22T00:59:51.689Z,94.48
2022-08-22T01:00:51.776Z,93.97
2022-08-22T01:01:51.676Z,93.67
2022-08-22T01:02:52.745Z,93.57
2022-08-22T01:03:51.649Z,93.57
2022-08-22T01:04:51.652Z,93.57
2022-08-22T01:05:51.618Z,93.51
2022-08-22T01:06:51.608Z,93.61
2022-08-22T01:07:51.586Z,93.71
2022-08-22T01:08:51.578Z,93.81
2022-08-22T01:09:51.570Z,93.81
2022-08-22T01:10:51.569Z,93.71
2022-08-22T01:11:51.530Z,93.81
2022-08-22T01:12:51.529Z,93.71
2022-08-22T01:13:51.514Z,93.86
2022-08-22T01:14:51.501Z,94.37
2022-08-22T01:15:51.482Z,94.71
2022-08-22T01:16:51.520Z,95.42
2022-08-22T01:17:51.453Z,95.73
2022-08-22T01:18:51.479Z,95.83
2022-08-22T01:19:51.429Z,95.83
2022-08-22T01:20:51.417Z,95.83
2022-08-22T01:21:51.401Z,95.83
2022-08-22T01:22:51.436Z,95.53
2022-08-22T01:23:51.381Z,95.94
2022-08-22T01:24:51.370Z,96.03
2022-08-22T01:25:51.348Z,95.94
2022-08-22T01:26:51.367Z,95.73
2022-08-22T01:27:51.323Z,95.79
2022-08-22T01:28:51.372Z,95.58
2022-08-22T01:29:51.303Z,95.48
2022-08-22T01:30:51.283Z,95.58
2022-08-22T01:31:51.271Z,95.58
2022-08-22T01:32:56.790Z,95.38
2022-08-22T01:33:52.333Z,95.18
2022-08-22T01:34:51.266Z,95.02
2022-08-22T01:35:51.211Z,95.32
2022-08-22T01:36:51.211Z,95.63
2022-08-22T01:37:51.181Z,95.73
2022-08-22T01:38:51.181Z,95.73
2022-08-22T01:39:51.217Z,95.63
2022-08-22T01:40:53.722Z,95.53
2022-08-22T01:41:51.131Z,95.63
2022-08-22T01:42:51.121Z,95.73
2022-08-22T01:43:58.847Z,95.63
2022-08-22T01:44:52.103Z,95.63
2022-08-22T01:45:51.083Z,95.63
2022-08-22T01:46:51.096Z,95.83
2022-08-22T01:47:51.063Z,95.63
2022-08-22T01:48:51.054Z,95.73
2022-08-22T01:49:51.043Z,95.53
2022-08-22T01:50:51.031Z,95.53
2022-08-22T01:51:51.033Z,95.53
2022-08-22T01:52:51.002Z,95.22
2022-08-22T01:53:50.975Z,95.22
2022-08-22T01:54:51.004Z,95.42
2022-08-22T01:55:50.943Z,95.42
2022-08-22T01:56:50.951Z,95.63
2022-08-22T01:57:50.922Z,95.94
2022-08-22T01:58:50.926Z,96.34
2022-08-22T01:59:50.904Z,96.34
2022-08-22T02:00:50.938Z,96.09
2022-08-22T02:01:50.885Z,95.58
2022-08-22T02:02:50.912Z,95.28
2022-08-22T02:03:50.866Z,95.18
2022-08-22T02:04:50.846Z,95.07
2022-08-22T02:05:50.823Z,94.77
2022-08-22T02:06:50.815Z,94.57
2022-08-22T02:07:50.815Z,94.00
2022-08-22T02:08:50.781Z,94.10
2022-08-22T02:09:50.773Z,94.76
2022-08-22T02:10:50.744Z,95.37
2022-08-22T02:11:50.754Z,96.08
2022-08-22T02:12:50.734Z,96.38
2022-08-22T02:13:57.742Z,96.28
2022-08-22T02:14:50.731Z,96.69
2022-08-22T02:15:50.691Z,96.99
2022-08-22T02:16:50.671Z,96.89
2022-08-22T02:17:50.661Z,96.69
2022-08-22T02:18:50.642Z,96.48
2022-08-22T02:19:50.623Z,96.59
2022-08-22T02:20:50.622Z,96.69
2022-08-22T02:21:50.659Z,96.48
2022-08-22T02:22:50.604Z,96.14
2022-08-22T02:23:50.588Z,96.14
2022-08-22T02:24:50.571Z,95.94
2022-08-22T02:25:50.556Z,95.73
2022-08-22T02:26:50.546Z,95.53
2022-08-22T02:27:50.574Z,95.32
2022-08-22T02:28:57.314Z,95.32
2022-08-22T02:29:51.525Z,95.12
2022-08-22T02:30:50.493Z,95.02
2022-08-22T02:31:50.463Z,95.22
2022-08-22T02:32:50.463Z,95.32
2022-08-22T02:33:50.487Z,95.22
2022-08-22T02:34:50.433Z,95.02
2022-08-22T02:35:50.434Z,94.96
2022-08-22T02:36:50.435Z,95.26
2022-08-22T02:37:50.394Z,96.08
2022-08-22T02:38:50.386Z,96.53
2022-08-22T02:39:50.501Z,96.83
2022-08-22T02:40:50.364Z,97.04
2022-08-22T02:41:50.345Z,97.14
2022-08-22T02:42:50.356Z,97.14
2022-08-22T02:43:50.326Z,97.55
2022-08-22T02:44:50.322Z,97.60
2022-08-22T02:45:50.303Z,97.40
2022-08-22T02:46:50.303Z,97.20
2022-08-22T02:47:50.254Z,96.89
2022-08-22T02:48:50.247Z,96.69
2022-08-22T02:49:50.236Z,96.69
2022-08-22T02:50:50.234Z,96.69
2022-08-22T02:51:50.226Z,96.59
2022-08-22T02:52:50.205Z,96.54
2022-08-22T02:53:50.196Z,96.54
2022-08-22T02:54:50.226Z,96.34
2022-08-22T02:55:50.166Z,96.23
2022-08-22T02:56:50.167Z,96.03
2022-08-22T02:57:50.157Z,95.83
2022-08-22T02:58:50.138Z,95.73
2022-08-22T02:59:50.116Z,95.94
2022-08-22T03:00:50.156Z,96.08
2022-08-22T03:01:50.183Z,96.18
2022-08-22T03:02:50.104Z,96.38
2022-08-22T03:03:50.058Z,96.48
2022-08-22T03:04:50.048Z,96.38
2022-08-22T03:05:50.027Z,96.34
2022-08-22T03:06:50.016Z,96.18
2022-08-22T03:07:50.004Z,96.18
2022-08-22T03:08:51.020Z,96.08
2022-08-22T03:09:49.987Z,96.18
2022-08-22T03:10:49.977Z,96.48
2022-08-22T03:11:49.967Z,96.38
2022-08-22T03:12:49.970Z,96.48
2022-08-22T03:13:49.959Z,96.23
2022-08-22T03:14:49.929Z,96.14
2022-08-22T03:15:49.918Z,96.03
2022-08-22T03:16:49.899Z,95.63
2022-08-22T03:17:49.879Z,95.53
2022-08-22T03:18:49.937Z,95.57
2022-08-22T03:19:49.867Z,95.57
2022-08-22T03:20:49.858Z,95.67
2022-08-22T03:21:49.836Z,95.98
2022-08-22T03:22:49.807Z,96.53
2022-08-22T03:23:49.805Z,96.94
2022-08-22T03:24:49.836Z,97.20
2022-08-22T03:25:49.789Z,97.50
2022-08-22T03:26:49.769Z,97.30
2022-08-22T03:27:50.144Z,97.20
2022-08-22T03:28:59.144Z,96.84
2022-08-22T03:29:50.751Z,96.54
2022-08-22T03:30:49.741Z,96.23
2022-08-22T03:31:49.709Z,95.98
2022-08-22T03:32:49.688Z,95.87
2022-08-22T03:33:49.688Z,95.78
2022-08-22T03:34:49.659Z,96.33
2022-08-22T03:35:49.659Z,96.83
2022-08-22T03:36:49.660Z,97.04
2022-08-22T03:37:49.619Z,97.14
2022-08-22T03:38:49.619Z,97.34
2022-08-22T03:39:49.669Z,97.65
2022-08-22T03:40:49.589Z,97.80
2022-08-22T03:41:49.581Z,97.71
2022-08-22T03:42:49.561Z,97.40
2022-08-22T03:43:49.550Z,97.09
2022-08-22T03:44:49.537Z,96.99
2022-08-22T03:45:49.556Z,96.79
2022-08-22T03:46:49.636Z,96.59
2022-08-22T03:47:49.502Z,96.79
2022-08-22T03:48:49.532Z,96.59
2022-08-22T03:49:49.459Z,96.59
2022-08-22T03:50:49.449Z,96.59
2022-08-22T03:51:50.492Z,96.69
2022-08-22T03:52:49.431Z,96.69
2022-08-22T03:53:49.409Z,96.48
2022-08-22T03:54:49.397Z,96.59
2022-08-22T03:55:49.388Z,96.59
2022-08-22T03:56:49.371Z,96.48
2022-08-22T03:57:49.416Z,96.89
2022-08-22T03:58:49.352Z,97.09
2022-08-22T03:59:49.351Z,97.09
2022-08-22T04:00:49.354Z,97.09
2022-08-22T04:01:49.319Z,96.95
2022-08-22T04:02:49.312Z,96.75
2022-08-22T04:03:49.282Z,96.64
2022-08-22T04:04:49.273Z,96.54
2022-08-22T04:05:49.282Z,96.64
2022-08-22T04:06:49.272Z,96.54
2022-08-22T04:07:49.230Z,96.44
2022-08-22T04:08:49.211Z,96.14
2022-08-22T04:09:49.202Z,95.83
2022-08-22T04:10:49.193Z,95.73
2022-08-22T04:11:49.192Z,95.73
2022-08-22T04:12:49.182Z,95.73
2022-08-22T04:13:49.161Z,95.94
2022-08-22T04:14:49.194Z,96.14
2022-08-22T04:15:49.142Z,96.03
2022-08-22T04:16:49.134Z,96.34
2022-08-22T04:17:49.111Z,96.34
2022-08-22T04:18:49.092Z,96.34
2022-08-22T04:19:49.082Z,96.64
2022-08-22T04:20:49.061Z,96.84
2022-08-22T04:21:49.063Z,97.05
2022-08-22T04:22:49.045Z,96.95
2022-08-22T04:23:49.063Z,96.50
2022-08-22T04:24:52.368Z,96.30
2022-08-22T04:25:49.006Z,96.09
2022-08-22T04:26:49.000Z,95.68
2022-08-22T04:27:48.984Z,95.48
2022-08-22T04:28:48.976Z,95.79
2022-08-22T04:29:48.942Z,96.09
2022-08-22T04:30:48.986Z,96.19
2022-08-22T04:31:48.924Z,96.19
2022-08-22T04:32:48.900Z,96.09
2022-08-22T04:33:48.947Z,95.94
2022-08-22T04:34:48.877Z,96.03
2022-08-22T04:35:48.857Z,96.23
2022-08-22T04:36:48.862Z,96.54
2022-08-22T04:37:48.858Z,96.64
2022-08-22T04:38:48.905Z,96.50
2022-08-22T04:39:48.845Z,96.19
2022-08-22T04:40:48.805Z,95.79
2022-08-22T04:41:48.809Z,95.58
2022-08-22T04:42:48.823Z,95.68
2022-08-22T04:43:48.769Z,95.68
2022-08-22T04:44:48.763Z,95.79
2022-08-22T04:45:48.726Z,95.89
2022-08-22T04:46:48.714Z,95.99
2022-08-22T04:47:54.092Z,96.30
2022-08-22T04:48:49.735Z,96.50
2022-08-22T04:49:48.675Z,96.39
2022-08-22T04:50:48.664Z,96.30
2022-08-22T04:51:48.650Z,95.94
2022-08-22T04:52:48.624Z,95.64
2022-08-22T04:53:48.637Z,95.64
2022-08-22T04:54:48.606Z,95.48
2022-08-22T04:55:48.599Z,95.68
2022-08-22T04:56:48.587Z,95.99
2022-08-22T04:57:48.576Z,96.30
2022-08-22T04:58:48.577Z,96.30
2022-08-22T04:59:48.574Z,96.39
2022-08-22T05:00:48.544Z,96.80
2022-08-22T05:01:48.585Z,97.00
2022-08-22T05:02:48.495Z,96.90
2022-08-22T05:03:48.505Z,96.86
2022-08-22T05:04:48.485Z,96.66
2022-08-22T05:05:48.470Z,96.45
2022-08-22T05:06:48.453Z,96.25
2022-08-22T05:07:48.437Z,96.15
2022-08-22T05:08:48.470Z,96.04
2022-08-22T05:09:49.426Z,95.94
2022-08-22T05:10:48.514Z,95.94
2022-08-22T05:11:48.388Z,96.04
2022-08-22T05:12:48.374Z,96.15
2022-08-22T05:13:48.358Z,96.45
2022-08-22T05:14:48.349Z,96.55
2022-08-22T05:15:48.356Z,96.75
2022-08-22T05:16:48.329Z,96.61
2022-08-22T05:17:48.315Z,96.41
2022-08-22T05:18:48.286Z,96.10
2022-08-22T05:19:48.290Z,95.90
2022-08-22T05:20:49.295Z,95.79
2022-08-22T05:21:48.268Z,95.59
2022-08-22T05:22:48.259Z,95.59
2022-08-22T05:23:48.940Z,95.70
2022-08-22T05:24:48.219Z,95.55
2022-08-22T05:25:48.207Z,95.39
2022-08-22T05:26:48.186Z,95.45
2022-08-22T05:27:48.186Z,95.65
2022-08-22T05:28:52.551Z,95.70
2022-08-22T05:29:49.162Z,95.70
2022-08-22T05:30:48.139Z,95.75
2022-08-22T05:31:48.130Z,95.75
2022-08-22T05:32:48.168Z,95.86
2022-08-22T05:33:50.060Z,95.65
2022-08-22T05:34:48.110Z,95.25
2022-08-22T05:35:50.814Z,95.20
2022-08-22T05:36:48.870Z,95.10
2022-08-22T05:37:48.099Z,95.10
2022-08-22T05:38:48.050Z,94.90
2022-08-22T05:39:48.065Z,94.79
2022-08-22T05:40:48.021Z,94.95
2022-08-22T05:41:48.008Z,94.75
2022-08-22T05:42:47.990Z,94.85
2022-08-22T05:43:47.980Z,94.65
2022-08-22T05:44:47.958Z,94.65
2022-08-22T05:45:47.990Z,94.65
2022-08-22T05:46:47.929Z,94.71
2022-08-22T05:47:47.947Z,94.50
2022-08-22T05:48:47.914Z,94.30
2022-08-22T05:49:47.901Z,94.20
2022-08-22T05:50:50.806Z,94.20
2022-08-22T05:51:47.879Z,94.26
2022-08-22T05:52:47.860Z,94.06
2022-08-22T05:53:47.859Z,93.85
2022-08-22T05:54:47.832Z,93.75
2022-08-22T05:55:47.876Z,93.95
2022-08-22T05:56:47.813Z,94.06
2022-08-22T05:57:47.800Z,93.71
2022-08-22T05:58:47.781Z,93.30
2022-08-22T05:59:47.762Z,93.40
2022-08-22T06:00:47.751Z,93.71
2022-08-22T06:01:47.793Z,93.40
2022-08-22T06:02:47.740Z,92.90
2022-08-22T06:03:47.720Z,92.80
2022-08-22T06:04:47.700Z,92.60
2022-08-22T06:05:47.712Z,92.35
2022-08-22T06:06:47.683Z,92.35
2022-08-22T06:07:47.673Z,92.45
2022-08-22T06:08:47.693Z,92.25
2022-08-22T06:09:47.653Z,92.14
2022-08-22T06:10:48.268Z,92.05
2022-08-22T06:11:51.758Z,91.94
2022-08-22T06:12:47.602Z,92.00
2022-08-22T06:13:47.594Z,92.10
2022-08-22T06:14:47.573Z,91.70
2022-08-22T06:15:48.180Z,91.70
2022-08-22T06:16:48.551Z,91.76
2022-08-22T06:17:47.550Z,91.46
2022-08-22T06:18:47.512Z,91.46
2022-08-22T06:19:47.492Z,91.35
2022-08-22T06:20:47.483Z,91.15
2022-08-22T06:21:47.485Z,91.01
2022-08-22T06:22:47.465Z,90.81
2022-08-22T06:23:47.467Z,90.70
2022-08-22T06:24:47.445Z,90.50
2022-08-22T06:25:47.449Z,90.56
2022-08-22T06:26:48.973Z,90.36
2022-08-22T06:27:47.393Z,90.36
2022-08-22T06:28:55.620Z,90.46
2022-08-22T06:29:48.405Z,90.32
2022-08-22T06:30:47.366Z,90.11
2022-08-22T06:31:47.348Z,90.11
2022-08-22T06:32:59.280Z,90.11
2022-08-22T06:33:48.345Z,90.32
2022-08-22T06:34:47.315Z,90.01
2022-08-22T06:35:47.825Z,89.97
2022-08-22T06:36:47.286Z,90.07
2022-08-22T06:37:47.285Z,89.77
2022-08-22T06:38:47.325Z,89.77
2022-08-22T06:39:47.275Z,89.77
2022-08-22T06:40:47.244Z,89.53
2022-08-22T06:41:47.231Z,89.23
2022-08-22T06:42:47.212Z,89.12
2022-08-22T06:43:47.196Z,88.78
2022-08-22T06:44:47.213Z,88.68
2022-08-22T06:45:47.177Z,88.58
2022-08-22T06:46:47.161Z,88.07
2022-08-22T06:47:49.928Z,88.38
2022-08-22T06:48:48.129Z,88.28
2022-08-22T06:49:47.126Z,88.13
2022-08-22T06:50:47.119Z,87.43
2022-08-22T06:51:47.132Z,87.13
2022-08-22T06:52:47.077Z,87.63
2022-08-22T06:53:48.082Z,87.53
2022-08-22T06:54:47.047Z,87.59
2022-08-22T06:55:47.038Z,87.39
2022-08-22T06:56:47.047Z,86.99
2022-08-22T06:57:47.017Z,86.54
2022-08-22T06:58:47.008Z,86.65
2022-08-22T06:59:46.981Z,86.44
2022-08-22T07:00:56.285Z,86.34
2022-08-22T07:01:48.025Z,86.34
2022-08-22T07:02:46.950Z,86.04
2022-08-22T07:03:47.011Z,86.00
2022-08-22T07:04:46.931Z,85.50
2022-08-22T07:05:46.910Z,85.19
2022-08-22T07:06:46.902Z,85.19
2022-08-22T07:07:46.909Z,84.95
2022-08-22T07:08:46.878Z,84.75
2022-08-22T07:09:46.860Z,85.05
2022-08-22T07:10:46.921Z,85.05
2022-08-22T07:11:46.860Z,84.35
2022-08-22T07:12:46.810Z,84.31
2022-08-22T07:13:46.809Z,84.51
2022-08-22T07:14:46.788Z,84.71
2022-08-22T07:15:46.781Z,84.71
2022-08-22T07:16:46.771Z,84.41
2022-08-22T07:17:46.784Z,84.27
2022-08-22T07:18:46.743Z,84.17
2022-08-22T07:19:46.808Z,83.37
2022-08-22T07:20:46.805Z,83.47
2022-08-22T07:21:46.716Z,83.37
2022-08-22T07:22:46.692Z,83.53
2022-08-22T07:23:46.782Z,83.33
2022-08-22T07:24:46.685Z,82.43
2022-08-22T07:25:46.666Z,82.29
2022-08-22T07:26:46.632Z,82.29
2022-08-22T07:27:52.089Z,81.59
2022-08-22T07:28:51.407Z,80.79
2022-08-22T07:29:47.602Z,80.85
2022-08-22T07:30:46.603Z,80.44
2022-08-22T07:31:46.563Z,80.35
2022-08-22T07:32:46.562Z,80.24
2022-08-22T07:33:46.553Z,79.54
2022-08-22T07:34:46.546Z,79.54
2022-08-22T07:35:53.140Z,79.00
2022-08-22T07:36:47.524Z,78.30
2022-08-22T07:37:46.495Z,78.70
2022-08-22T07:38:46.504Z,78.20
2022-08-22T07:39:46.499Z,77.56
2022-08-22T07:40:46.460Z,77.47
2022-08-22T07:41:46.483Z,77.36
2022-08-22T07:42:46.435Z,77.23
2022-08-22T07:43:46.417Z,76.33
2022-08-22T07:44:46.403Z,75.83
2022-08-22T07:45:46.386Z,76.03
2022-08-22T07:46:46.384Z,75.83
2022-08-22T07:47:49.806Z,75.79
2022-08-22T07:49:06.176Z,75.19
2022-08-22T07:49:49.656Z,74.59
2022-08-22T07:50:46.335Z,74.46
2022-08-22T07:51:46.317Z,73.56
2022-08-22T07:52:46.307Z,73.36
2022-08-22T07:53:46.312Z,72.96
2022-08-22T07:54:46.295Z,72.06
2022-08-22T07:55:49.723Z,71.66
2022-08-22T07:56:46.259Z,71.46
2022-08-22T07:57:46.243Z,72.13
2022-08-22T07:58:46.247Z,70.56
2022-08-22T07:59:46.227Z,70.62
2022-08-22T08:00:46.198Z,70.16
2022-08-22T08:01:46.265Z,71.12
2022-08-22T08:02:46.178Z,71.52
2022-08-22T08:03:46.158Z,69.93
2022-08-22T08:04:46.168Z,68.63
2022-08-22T08:05:46.159Z,68.73
2022-08-22T08:06:46.149Z,68.73
2022-08-22T08:07:46.151Z,69.32
2022-08-22T08:08:46.111Z,70.29
2022-08-22T08:09:46.090Z,68.79
2022-08-22T08:10:46.082Z,69.09
2022-08-22T08:11:46.080Z,69.49
2022-08-22T08:12:57.950Z,68.56
2022-08-22T08:14:57.149Z,68.16
2022-08-22T08:15:57.129Z,68.86
2022-08-22T08:16:57.129Z,67.16
2022-08-22T08:17:57.104Z,68.86
2022-08-22T08:18:57.129Z,67.57
2022-08-22T08:19:57.072Z,67.30
2022-08-22T08:20:57.062Z,68.16
2022-08-22T08:21:57.063Z,68.66
2022-08-22T08:22:57.030Z,68.36
2022-08-22T08:23:57.022Z,66.77
2022-08-22T08:24:57.010Z,67.07
2022-08-22T08:25:57.003Z,67.36
2022-08-22T08:26:56.983Z,68.46
2022-08-22T08:27:57.009Z,66.47
2022-08-22T08:28:56.962Z,66.86
2022-08-22T08:29:56.952Z,67.13
2022-08-22T08:30:56.932Z,67.33
2022-08-22T08:31:56.924Z,66.63
2022-08-22T08:32:59.531Z,67.63
2022-08-22T08:33:57.903Z,68.13
2022-08-22T08:34:56.881Z,66.53
2022-08-22T08:36:03.571Z,67.63
2022-08-22T08:36:57.853Z,67.43
2022-08-22T08:37:57.013Z,65.80
2022-08-22T08:38:56.830Z,64.74
2022-08-22T08:39:56.857Z,65.34
2022-08-22T08:40:56.844Z,66.60
2022-08-22T08:41:56.805Z,66.00
2022-08-22T08:42:56.776Z,65.50
2022-08-22T08:43:56.766Z,64.81
2022-08-22T08:44:56.854Z,64.81
2022-08-22T08:45:59.249Z,64.07
2022-08-22T08:46:56.847Z,64.07
2022-08-22T08:47:56.780Z,64.28
2022-08-22T08:48:56.698Z,65.08
2022-08-22T08:49:56.693Z,64.84
2022-08-22T08:50:56.685Z,63.95
2022-08-22T08:51:56.669Z,64.54
2022-08-22T08:52:56.646Z,64.45
2022-08-22T08:53:56.666Z,63.95
2022-08-22T08:54:56.616Z,63.55
2022-08-22T08:55:56.670Z,64.15
2022-08-22T08:56:56.604Z,64.81
2022-08-22T08:57:56.651Z,62.82
2022-08-22T08:58:56.578Z,63.55
2022-08-22T08:59:56.599Z,63.05
2022-08-22T09:00:56.986Z,63.45
2022-08-22T09:01:56.539Z,64.34
2022-08-22T09:02:56.539Z,62.15
2022-08-22T09:03:56.520Z,63.15
2022-08-22T09:04:56.499Z,63.62
2022-08-22T09:05:56.477Z,62.23
2022-08-22T09:06:56.846Z,62.62
2022-08-22T09:07:57.460Z,62.72
2022-08-22T09:08:56.440Z,62.99
2022-08-22T09:09:56.430Z,61.99
2022-08-22T09:10:56.409Z,61.60
2022-08-22T09:11:56.399Z,60.80
2022-08-22T09:13:00.626Z,60.70
2022-08-22T09:13:57.400Z,61.10
2022-08-22T09:14:56.380Z,60.30
2022-08-22T09:15:56.364Z,60.40
2022-08-22T09:16:57.353Z,60.50
2022-08-22T09:17:56.376Z,60.00
2022-08-22T09:18:56.321Z,59.70
2022-08-22T09:19:56.323Z,60.30
2022-08-22T09:20:56.303Z,60.90
2022-08-22T09:21:56.272Z,60.30
2022-08-22T09:22:56.261Z,60.30
2022-08-22T09:23:56.255Z,60.57
2022-08-22T09:24:56.231Z,61.37
2022-08-22T09:25:56.241Z,60.27
2022-08-22T09:26:57.213Z,59.98
2022-08-22T09:27:56.245Z,60.05
2022-08-22T09:28:56.184Z,59.35
2022-08-22T09:29:59.595Z,59.65
2022-08-22T09:30:56.164Z,58.95
2022-08-22T09:32:00.148Z,59.22
2022-08-22T09:32:56.133Z,59.82
2022-08-22T09:33:56.135Z,58.43
2022-08-22T09:34:56.114Z,58.43
2022-08-22T09:35:56.102Z,58.90
2022-08-22T09:36:56.128Z,58.60
2022-08-22T09:37:56.115Z,57.90
2022-08-22T09:38:56.056Z,57.31
2022-08-22T09:39:57.288Z,58.00
2022-08-22T09:40:56.059Z,58.60
2022-08-22T09:41:56.027Z,57.98
2022-08-22T09:42:56.203Z,57.98
2022-08-22T09:43:55.997Z,56.21
2022-08-22T09:44:55.987Z,56.71
2022-08-22T09:45:55.985Z,57.11
2022-08-22T09:46:55.965Z,58.00
2022-08-22T09:48:02.190Z,57.01
2022-08-22T09:48:56.936Z,57.73
2022-08-22T09:49:55.926Z,57.90
2022-08-22T09:51:04.677Z,57.43
2022-08-22T09:51:56.896Z,57.53
2022-08-22T09:52:55.918Z,57.64
2022-08-22T09:53:55.877Z,57.64
2022-08-22T09:54:55.859Z,56.94
2022-08-22T09:55:55.850Z,56.64
2022-08-22T09:56:55.832Z,56.94
2022-08-22T09:57:55.840Z,55.44
2022-08-22T09:58:55.839Z,56.27
2022-08-22T09:59:58.042Z,57.14
2022-08-22T10:00:55.873Z,57.24
2022-08-22T10:01:55.771Z,58.43
2022-08-22T10:02:55.820Z,57.70
2022-08-22T10:03:55.749Z,58.50
2022-08-22T10:04:55.720Z,57.31
2022-08-22T10:05:55.720Z,57.58
2022-08-22T10:06:55.700Z,56.98
2022-08-22T10:07:55.710Z,56.29
2022-08-22T10:08:55.711Z,56.29
2022-08-22T10:09:55.703Z,55.62
2022-08-22T10:10:55.712Z,57.01
2022-08-22T10:11:55.652Z,56.81
2022-08-22T10:12:55.632Z,56.09
2022-08-22T10:14:00.758Z,56.29
2022-08-22T10:14:56.612Z,55.10
2022-08-22T10:15:55.602Z,54.87
2022-08-22T10:16:55.604Z,54.47
2022-08-22T10:17:55.573Z,54.97
2022-08-22T10:18:57.951Z,55.27
2022-08-22T10:19:56.554Z,53.68
2022-08-22T10:20:55.523Z,55.07
2022-08-22T10:21:55.513Z,55.07
2022-08-22T10:22:55.537Z,56.26
2022-08-22T10:23:55.493Z,54.08
2022-08-22T10:24:55.474Z,55.57
2022-08-22T10:25:55.495Z,54.97
2022-08-22T10:26:55.455Z,54.85
2022-08-22T10:27:55.454Z,55.44
2022-08-22T10:28:55.437Z,55.24
2022-08-22T10:29:55.405Z,55.94
2022-08-22T10:30:55.396Z,55.02
2022-08-22T10:31:59.467Z,54.42
2022-08-22T10:32:55.396Z,54.42
2022-08-22T10:33:55.377Z,54.82
2022-08-22T10:34:55.355Z,54.82
2022-08-22T10:35:55.347Z,55.11
2022-08-22T10:36:55.330Z,53.92
2022-08-22T10:37:55.318Z,53.63
2022-08-22T10:38:55.307Z,53.03
2022-08-22T10:39:55.328Z,54.22
2022-08-22T10:40:55.269Z,53.13
2022-08-22T10:41:55.256Z,53.92
2022-08-22T10:42:55.237Z,55.21
2022-08-22T10:43:56.370Z,54.82
2022-08-22T10:44:56.228Z,54.82
2022-08-22T10:45:55.211Z,54.45
2022-08-22T10:46:55.193Z,54.94
2022-08-22T10:47:55.178Z,53.06
2022-08-22T10:48:55.158Z,53.03
2022-08-22T10:49:55.528Z,52.64
2022-08-22T10:50:55.201Z,51.97
2022-08-22T10:51:55.143Z,51.77
2022-08-22T10:52:55.122Z,52.96
2022-08-22T10:53:55.900Z,52.76
2022-08-22T10:54:55.101Z,53.26
2022-08-22T10:55:55.112Z,53.73
2022-08-22T10:56:55.088Z,54.02
2022-08-22T10:57:55.052Z,53.33
2022-08-22T10:58:55.050Z,53.38
2022-08-22T10:59:55.030Z,53.98
2022-08-22T11:00:55.070Z,54.00
2022-08-22T11:01:55.117Z,54.43
2022-08-22T11:02:54.997Z,57.18
2022-08-22T11:03:54.993Z,55.59
2022-08-22T11:04:54.965Z,54.80
2022-08-22T11:05:54.973Z,56.16
2022-08-22T11:06:54.945Z,55.17
2022-08-22T11:07:54.953Z,53.78
2022-08-22T11:08:54.961Z,54.45
2022-08-22T11:09:54.913Z,54.94
2022-08-22T11:10:54.895Z,54.13
2022-08-22T11:11:54.887Z,52.47
2022-08-22T11:12:54.870Z,52.76
2022-08-22T11:13:54.923Z,53.85
2022-08-22T11:14:54.850Z,54.85
2022-08-22T11:15:54.830Z,55.71
2022-08-22T11:16:55.341Z,55.21
2022-08-22T11:17:54.819Z,55.51
2022-08-22T11:19:02.149Z,55.19
2022-08-22T11:19:55.799Z,54.49
2022-08-22T11:20:54.756Z,52.12
2022-08-22T11:21:54.823Z,51.52
2022-08-22T11:22:55.580Z,53.90
2022-08-22T11:23:54.825Z,53.80
2022-08-22T11:24:56.758Z,51.62
2022-08-22T11:25:54.719Z,52.73
2022-08-22T11:26:54.688Z,53.36
2022-08-22T11:27:54.679Z,54.62
2022-08-22T11:28:54.719Z,55.39
2022-08-22T11:29:54.648Z,54.10
2022-08-22T11:30:54.636Z,52.12
2022-08-22T11:31:54.635Z,52.12
2022-08-22T11:32:57.911Z,52.22
2022-08-22T11:33:54.657Z,53.38
2022-08-22T11:34:54.591Z,53.08
2022-08-22T11:35:54.582Z,51.99
2022-08-22T11:36:54.573Z,51.82
2022-08-22T11:37:56.288Z,52.64
2022-08-22T11:38:54.530Z,53.70
2022-08-22T11:39:54.556Z,54.39
2022-08-22T11:40:54.520Z,54.17
2022-08-22T11:41:54.503Z,52.61
2022-08-22T11:42:54.522Z,53.18
2022-08-22T11:43:54.469Z,53.08
2022-08-22T11:44:54.626Z,52.78
2022-08-22T11:45:54.453Z,53.88
2022-08-22T11:46:54.441Z,53.55
2022-08-22T11:47:54.432Z,53.85
2022-08-22T11:48:54.545Z,53.03
2022-08-22T11:49:54.394Z,52.34
2022-08-22T11:50:54.384Z,50.85
2022-08-22T11:51:54.395Z,49.40
2022-08-22T11:52:54.379Z,49.69
2022-08-22T11:53:54.421Z,49.99
2022-08-22T11:54:54.356Z,49.71
2022-08-22T11:55:54.331Z,51.28
2022-08-22T11:56:54.315Z,51.25
2022-08-22T11:57:54.295Z,52.14
2022-08-22T11:58:54.324Z,50.53
2022-08-22T11:59:54.412Z,50.73
2022-08-22T12:00:54.337Z,48.75
2022-08-22T12:01:54.308Z,48.14
2022-08-22T12:02:54.316Z,49.72
2022-08-22T12:03:58.475Z,48.06
2022-08-22T12:04:54.217Z,48.46
2022-08-22T12:05:54.203Z,49.05
2022-08-22T12:06:54.635Z,49.42
2022-08-22T12:07:54.186Z,48.55
2022-08-22T12:08:54.158Z,47.29
2022-08-22T12:09:54.147Z,48.18
2022-08-22T12:10:54.127Z,50.95
2022-08-22T12:11:54.117Z,49.15
2022-08-22T12:12:54.154Z,48.55
2022-08-22T12:14:03.994Z,50.61
2022-08-22T12:14:55.078Z,50.61
2022-08-22T12:15:54.161Z,49.72
2022-08-22T12:16:54.051Z,48.63
2022-08-22T12:17:59.853Z,49.72
2022-08-22T12:18:55.040Z,50.12
2022-08-22T12:20:15.186Z,50.88
2022-08-22T12:20:55.003Z,50.09
2022-08-22T12:21:53.992Z,50.68
2022-08-22T12:22:54.028Z,50.38
2022-08-22T12:23:53.981Z,48.73
2022-08-22T12:24:53.952Z,49.62
2022-08-22T12:25:53.939Z,50.41
2022-08-22T12:26:53.920Z,49.05
2022-08-22T12:27:55.200Z,50.34
2022-08-22T12:28:53.922Z,49.87
2022-08-22T12:29:53.901Z,50.36
2022-08-22T12:30:54.689Z,48.90
2022-08-22T12:31:53.873Z,49.59
2022-08-22T12:32:53.865Z,50.01
2022-08-22T12:33:53.843Z,51.10
2022-08-22T12:34:53.845Z,51.60
2022-08-22T12:35:53.831Z,51.67
2022-08-22T12:36:53.804Z,50.29
2022-08-22T12:37:53.797Z,50.31
2022-08-22T12:38:53.795Z,51.89
2022-08-22T12:39:53.804Z,49.62
2022-08-22T12:40:53.765Z,51.20
2022-08-22T12:41:53.785Z,50.68
2022-08-22T12:42:53.735Z,50.68
2022-08-22T12:43:53.704Z,50.66
2022-08-22T12:44:53.695Z,49.17
2022-08-22T12:45:53.704Z,51.25
2022-08-22T12:46:53.675Z,49.84
2022-08-22T12:47:53.658Z,48.55